createdAt,value
2023-08-08T00:00:19.392Z,98737.38
2023-08-08T00:10:25.126Z,98755.11
2023-08-08T00:20:30.991Z,98762.12
2023-08-08T00:30:36.991Z,98762.25
2023-08-08T00:40:42.578Z,98766.64
2023-08-08T00:50:50.349Z,98766.04
2023-08-08T01:00:58.865Z,98779.45
2023-08-08T01:11:05.526Z,98788.26
2023-08-08T01:21:12.386Z,98795.48
2023-08-08T01:31:18.430Z,98808.54
2023-08-08T01:41:25.673Z,98810.77
2023-08-08T01:51:31.375Z,98809.73
2023-08-08T02:01:37.022Z,98815.05
2023-08-08T02:11:42.657Z,98813.11
2023-08-08T02:21:48.240Z,98823.70
2023-08-08T02:31:53.942Z,98833.37
2023-08-08T02:41:59.956Z,98841.33
2023-08-08T02:52:06.749Z,98851.05
2023-08-08T03:02:12.450Z,98858.67
2023-08-08T03:12:19.416Z,98870.01
2023-08-08T03:22:24.990Z,98883.07
2023-08-08T03:32:32.111Z,98887.48
2023-08-08T03:42:38.028Z,98889.61
2023-08-08T03:52:43.671Z,98905.65
2023-08-08T04:02:49.558Z,98910.95
2023-08-08T04:12:55.205Z,98913.77
2023-08-08T04:23:00.766Z,98927.33
2023-08-08T04:33:06.919Z,98942.14
2023-08-08T04:43:12.582Z,98959.98
2023-08-08T04:53:18.219Z,98971.65
2023-08-08T05:03:23.880Z,98986.95
2023-08-08T05:13:29.600Z,98997.45
2023-08-08T05:23:35.284Z,99006.45
2023-08-08T05:33:40.999Z,99003.65
2023-08-08T05:43:46.633Z,99006.44
2023-08-08T05:53:52.273Z,99020.94
2023-08-08T06:03:59.356Z,99027.05
2023-08-08T06:14:04.991Z,99029.33
2023-08-08T06:24:10.713Z,99038.34
2023-08-08T06:34:16.449Z,-1.00
2023-08-08T06:44:24.851Z,-1.00
2023-08-08T06:54:30.542Z,-1.00
2023-08-08T07:04:36.175Z,-1.00
